sensor_id;sensor_type;location;lat;lon;timestamp;P1;durP1;ratioP1;P2;durP2;ratioP2
35795;SDS011;21916;52.428;13.302;2023-06-14T00:00:51;2.15;;;1.20;;
35795;SDS011;21916;52.428;13.302;2023-06-14T00:03:18;0.60;;;0.60;;
35795;SDS011;21916;52.428;13.302;2023-06-14T00:05:48;0.60;;;0.50;;
35795;SDS011;21916;52.428;13.302;2023-06-14T00:08:14;0.88;;;0.57;;
35795;SDS011;21916;52.428;13.302;2023-06-14T00:10:40;0.45;;;0.45;;
35795;SDS011;21916;52.428;13.302;2023-06-14T00:13:07;0.40;;;0.40;;
35795;SDS011;21916;52.428;13.302;2023-06-14T00:15:34;1.25;;;0.90;;
35795;SDS011;21916;52.428;13.302;2023-06-14T00:18:01;1.20;;;0.93;;
35795;SDS011;21916;52.428;13.302;2023-06-14T00:20:28;1.30;;;1.08;;
35795;SDS011;21916;52.428;13.302;2023-06-14T00:22:56;1.10;;;0.65;;
35795;SDS011;21916;52.428;13.302;2023-06-14T00:25:22;1.10;;;0.77;;
35795;SDS011;21916;52.428;13.302;2023-06-14T00:27:52;0.57;;;0.50;;
35795;SDS011;21916;52.428;13.302;2023-06-14T00:30:19;1.13;;;0.65;;
35795;SDS011;21916;52.428;13.302;2023-06-14T00:32:46;1.42;;;1.00;;
35795;SDS011;21916;52.428;13.302;2023-06-14T00:35:12;1.27;;;0.70;;
35795;SDS011;21916;52.428;13.302;2023-06-14T00:37:38;0.73;;;0.65;;
35795;SDS011;21916;52.428;13.302;2023-06-14T00:40:05;0.52;;;0.50;;
35795;SDS011;21916;52.428;13.302;2023-06-14T00:42:32;1.45;;;0.60;;
35795;SDS011;21916;52.428;13.302;2023-06-14T00:44:59;1.42;;;0.90;;
35795;SDS011;21916;52.428;13.302;2023-06-14T00:47:25;1.40;;;0.70;;
35795;SDS011;21916;52.428;13.302;2023-06-14T00:49:52;2.00;;;0.80;;
35795;SDS011;21916;52.428;13.302;2023-06-14T00:52:20;0.70;;;0.60;;
35795;SDS011;21916;52.428;13.302;2023-06-14T00:54:47;0.40;;;0.40;;
35795;SDS011;21916;52.428;13.302;2023-06-14T00:57:13;1.63;;;0.70;;
35795;SDS011;21916;52.428;13.302;2023-06-14T00:59:44;1.17;;;0.85;;
35795;SDS011;21916;52.428;13.302;2023-06-14T01:02:11;1.17;;;0.80;;
35795;SDS011;21916;52.428;13.302;2023-06-14T01:04:38;1.45;;;0.73;;
35795;SDS011;21916;52.428;13.302;2023-06-14T01:07:31;0.70;;;0.70;;
35795;SDS011;21916;52.428;13.302;2023-06-14T01:15:39;0.65;;;0.60;;
35795;SDS011;21916;52.428;13.302;2023-06-14T01:18:08;1.05;;;0.55;;
35795;SDS011;21916;52.428;13.302;2023-06-14T01:20:42;0.50;;;0.50;;
35795;SDS011;21916;52.428;13.302;2023-06-14T01:23:16;1.33;;;0.90;;
35795;SDS011;21916;52.428;13.302;2023-06-14T01:25:43;2.40;;;1.13;;
35795;SDS011;21916;52.428;13.302;2023-06-14T01:28:11;1.25;;;1.13;;
35795;SDS011;21916;52.428;13.302;2023-06-14T01:30:42;0.80;;;0.80;;
35795;SDS011;21916;52.428;13.302;2023-06-14T01:33:20;1.33;;;0.82;;
35795;SDS011;21916;52.428;13.302;2023-06-14T01:35:49;1.02;;;0.82;;
35795;SDS011;21916;52.428;13.302;2023-06-14T01:38:20;0.77;;;0.68;;
35795;SDS011;21916;52.428;13.302;2023-06-14T01:40:49;1.15;;;0.82;;
35795;SDS011;21916;52.428;13.302;2023-06-14T01:43:17;2.13;;;1.30;;
35795;SDS011;21916;52.428;13.302;2023-06-14T01:45:44;1.13;;;0.80;;
35795;SDS011;21916;52.428;13.302;2023-06-14T01:48:14;0.98;;;0.98;;
35795;SDS011;21916;52.428;13.302;2023-06-14T01:50:40;1.92;;;0.93;;
35795;SDS011;21916;52.428;13.302;2023-06-14T01:53:09;2.20;;;1.10;;
35795;SDS011;21916;52.428;13.302;2023-06-14T01:55:36;1.85;;;0.95;;
35795;SDS011;21916;52.428;13.302;2023-06-14T01:58:06;1.83;;;1.15;;
35795;SDS011;21916;52.428;13.302;2023-06-14T02:00:32;1.35;;;0.90;;
35795;SDS011;21916;52.428;13.302;2023-06-14T02:02:58;1.27;;;0.98;;
35795;SDS011;21916;52.428;13.302;2023-06-14T02:05:25;0.80;;;0.80;;
35795;SDS011;21916;52.428;13.302;2023-06-14T02:07:52;2.40;;;1.02;;
35795;SDS011;21916;52.428;13.302;2023-06-14T02:10:21;1.45;;;0.98;;
35795;SDS011;21916;52.428;13.302;2023-06-14T02:12:49;0.88;;;0.77;;
35795;SDS011;21916;52.428;13.302;2023-06-14T02:15:15;1.98;;;1.20;;
35795;SDS011;21916;52.428;13.302;2023-06-14T02:17:45;1.20;;;0.90;;
35795;SDS011;21916;52.428;13.302;2023-06-14T02:20:17;1.23;;;1.00;;
35795;SDS011;21916;52.428;13.302;2023-06-14T02:22:43;3.08;;;0.95;;
35795;SDS011;21916;52.428;13.302;2023-06-14T02:25:10;2.05;;;1.02;;
35795;SDS011;21916;52.428;13.302;2023-06-14T02:27:36;1.08;;;0.98;;
35795;SDS011;21916;52.428;13.302;2023-06-14T02:30:03;1.75;;;0.80;;
35795;SDS011;21916;52.428;13.302;2023-06-14T02:32:31;0.82;;;0.82;;
35795;SDS011;21916;52.428;13.302;2023-06-14T02:35:00;1.92;;;1.27;;
35795;SDS011;21916;52.428;13.302;2023-06-14T02:37:27;2.22;;;0.93;;
35795;SDS011;21916;52.428;13.302;2023-06-14T02:39:53;1.15;;;1.02;;
35795;SDS011;21916;52.428;13.302;2023-06-14T02:42:19;2.50;;;1.58;;
35795;SDS011;21916;52.428;13.302;2023-06-14T02:44:45;1.63;;;1.33;;
35795;SDS011;21916;52.428;13.302;2023-06-14T02:47:17;1.95;;;1.38;;
35795;SDS011;21916;52.428;13.302;2023-06-14T02:49:43;1.48;;;0.88;;
35795;SDS011;21916;52.428;13.302;2023-06-14T02:52:13;1.90;;;1.05;;
35795;SDS011;21916;52.428;13.302;2023-06-14T02:54:40;1.50;;;1.30;;
35795;SDS011;21916;52.428;13.302;2023-06-14T02:57:08;1.25;;;1.10;;
35795;SDS011;21916;52.428;13.302;2023-06-14T02:59:34;2.95;;;1.52;;
35795;SDS011;21916;52.428;13.302;2023-06-14T03:02:02;2.55;;;1.35;;
35795;SDS011;21916;52.428;13.302;2023-06-14T03:04:30;1.95;;;1.25;;
35795;SDS011;21916;52.428;13.302;2023-06-14T03:07:06;3.20;;;1.27;;
35795;SDS011;21916;52.428;13.302;2023-06-14T03:09:38;1.27;;;0.85;;
35795;SDS011;21916;52.428;13.302;2023-06-14T03:12:05;1.33;;;1.23;;
35795;SDS011;21916;52.428;13.302;2023-06-14T03:14:35;3.92;;;1.35;;
35795;SDS011;21916;52.428;13.302;2023-06-14T03:17:02;2.78;;;1.63;;
35795;SDS011;21916;52.428;13.302;2023-06-14T03:19:31;1.83;;;1.02;;
35795;SDS011;21916;52.428;13.302;2023-06-14T03:21:57;1.35;;;1.00;;
35795;SDS011;21916;52.428;13.302;2023-06-14T03:24:24;2.63;;;1.33;;
35795;SDS011;21916;52.428;13.302;2023-06-14T03:26:55;2.30;;;1.60;;
35795;SDS011;21916;52.428;13.302;2023-06-14T03:29:22;1.60;;;1.10;;
35795;SDS011;21916;52.428;13.302;2023-06-14T03:31:59;1.88;;;1.00;;
35795;SDS011;21916;52.428;13.302;2023-06-14T03:34:36;1.33;;;1.20;;
35795;SDS011;21916;52.428;13.302;2023-06-14T03:37:04;2.15;;;1.73;;
35795;SDS011;21916;52.428;13.302;2023-06-14T03:39:31;2.03;;;1.42;;
35795;SDS011;21916;52.428;13.302;2023-06-14T03:41:56;1.98;;;1.33;;
35795;SDS011;21916;52.428;13.302;2023-06-14T03:44:23;3.22;;;1.50;;
35795;SDS011;21916;52.428;13.302;2023-06-14T03:46:50;1.50;;;0.95;;
35795;SDS011;21916;52.428;13.302;2023-06-14T03:49:16;2.47;;;1.55;;
35795;SDS011;21916;52.428;13.302;2023-06-14T03:51:46;2.88;;;1.48;;
35795;SDS011;21916;52.428;13.302;2023-06-14T03:54:17;1.40;;;1.30;;
35795;SDS011;21916;52.428;13.302;2023-06-14T03:56:43;1.85;;;1.05;;
35795;SDS011;21916;52.428;13.302;2023-06-14T03:59:11;1.63;;;1.52;;
35795;SDS011;21916;52.428;13.302;2023-06-14T04:01:40;3.42;;;2.03;;
35795;SDS011;21916;52.428;13.302;2023-06-14T04:04:13;3.78;;;2.25;;
35795;SDS011;21916;52.428;13.302;2023-06-14T04:06:42;3.20;;;1.45;;
35795;SDS011;21916;52.428;13.302;2023-06-14T04:09:09;1.67;;;1.35;;
35795;SDS011;21916;52.428;13.302;2023-06-14T04:11:35;3.60;;;1.48;;
35795;SDS011;21916;52.428;13.302;2023-06-14T04:14:02;3.67;;;1.70;;
35795;SDS011;21916;52.428;13.302;2023-06-14T04:16:28;4.50;;;1.92;;
35795;SDS011;21916;52.428;13.302;2023-06-14T04:18:55;1.58;;;1.15;;
35795;SDS011;21916;52.428;13.302;2023-06-14T04:21:23;2.53;;;1.98;;
35795;SDS011;21916;52.428;13.302;2023-06-14T04:23:51;3.03;;;2.70;;
35795;SDS011;21916;52.428;13.302;2023-06-14T04:26:21;2.30;;;1.92;;
35795;SDS011;21916;52.428;13.302;2023-06-14T04:28:49;3.53;;;2.22;;
35795;SDS011;21916;52.428;13.302;2023-06-14T04:31:16;2.08;;;1.67;;
35795;SDS011;21916;52.428;13.302;2023-06-14T04:33:43;2.63;;;1.77;;
35795;SDS011;21916;52.428;13.302;2023-06-14T04:36:12;4.00;;;2.47;;
35795;SDS011;21916;52.428;13.302;2023-06-14T04:38:39;2.40;;;1.73;;
35795;SDS011;21916;52.428;13.302;2023-06-14T04:41:05;3.13;;;1.85;;
35795;SDS011;21916;52.428;13.302;2023-06-14T04:43:31;2.55;;;1.80;;
35795;SDS011;21916;52.428;13.302;2023-06-14T04:46:06;1.77;;;1.40;;
35795;SDS011;21916;52.428;13.302;2023-06-14T04:48:39;2.53;;;1.55;;
35795;SDS011;21916;52.428;13.302;2023-06-14T04:51:07;2.85;;;2.13;;
35795;SDS011;21916;52.428;13.302;2023-06-14T04:53:35;3.97;;;1.95;;
35795;SDS011;21916;52.428;13.302;2023-06-14T04:56:02;2.53;;;2.15;;
35795;SDS011;21916;52.428;13.302;2023-06-14T04:58:30;2.35;;;1.83;;
35795;SDS011;21916;52.428;13.302;2023-06-14T05:00:57;3.33;;;2.10;;
35795;SDS011;21916;52.428;13.302;2023-06-14T05:03:25;2.10;;;1.73;;
35795;SDS011;21916;52.428;13.302;2023-06-14T05:05:52;2.70;;;1.60;;
35795;SDS011;21916;52.428;13.302;2023-06-14T05:08:19;2.50;;;2.08;;
35795;SDS011;21916;52.428;13.302;2023-06-14T05:10:49;2.75;;;1.55;;
35795;SDS011;21916;52.428;13.302;2023-06-14T05:13:15;1.58;;;1.20;;
35795;SDS011;21916;52.428;13.302;2023-06-14T05:15:44;2.92;;;1.50;;
35795;SDS011;21916;52.428;13.302;2023-06-14T05:18:10;2.72;;;1.08;;
35795;SDS011;21916;52.428;13.302;2023-06-14T05:20:36;2.35;;;1.45;;
35795;SDS011;21916;52.428;13.302;2023-06-14T05:23:02;2.78;;;2.00;;
35795;SDS011;21916;52.428;13.302;2023-06-14T05:25:28;1.95;;;1.30;;
35795;SDS011;21916;52.428;13.302;2023-06-14T05:27:54;1.88;;;1.58;;
35795;SDS011;21916;52.428;13.302;2023-06-14T05:30:20;2.35;;;1.40;;
35795;SDS011;21916;52.428;13.302;2023-06-14T05:32:46;2.00;;;1.42;;
35795;SDS011;21916;52.428;13.302;2023-06-14T05:35:12;1.55;;;1.15;;
35795;SDS011;21916;52.428;13.302;2023-06-14T05:37:38;2.40;;;1.65;;
35795;SDS011;21916;52.428;13.302;2023-06-14T05:40:04;6.63;;;2.38;;
35795;SDS011;21916;52.428;13.302;2023-06-14T05:42:34;2.30;;;1.33;;
35795;SDS011;21916;52.428;13.302;2023-06-14T05:45:00;3.90;;;1.58;;
35795;SDS011;21916;52.428;13.302;2023-06-14T05:47:26;3.13;;;2.00;;
35795;SDS011;21916;52.428;13.302;2023-06-14T05:49:53;3.78;;;1.50;;
35795;SDS011;21916;52.428;13.302;2023-06-14T05:52:19;2.83;;;1.77;;
35795;SDS011;21916;52.428;13.302;2023-06-14T05:54:45;1.27;;;1.00;;
35795;SDS011;21916;52.428;13.302;2023-06-14T05:57:12;3.00;;;1.65;;
35795;SDS011;21916;52.428;13.302;2023-06-14T05:59:38;4.78;;;1.27;;
35795;SDS011;21916;52.428;13.302;2023-06-14T06:02:03;2.50;;;1.50;;
35795;SDS011;21916;52.428;13.302;2023-06-14T06:04:30;2.10;;;1.50;;
35795;SDS011;21916;52.428;13.302;2023-06-14T06:06:56;4.55;;;1.83;;
35795;SDS011;21916;52.428;13.302;2023-06-14T06:09:22;1.85;;;1.52;;
35795;SDS011;21916;52.428;13.302;2023-06-14T06:11:47;3.60;;;2.10;;
35795;SDS011;21916;52.428;13.302;2023-06-14T06:14:13;2.45;;;1.63;;
35795;SDS011;21916;52.428;13.302;2023-06-14T06:16:39;1.63;;;1.13;;
35795;SDS011;21916;52.428;13.302;2023-06-14T06:19:05;1.75;;;1.50;;
35795;SDS011;21916;52.428;13.302;2023-06-14T06:21:31;2.38;;;1.40;;
35795;SDS011;21916;52.428;13.302;2023-06-14T06:23:57;2.13;;;1.77;;
35795;SDS011;21916;52.428;13.302;2023-06-14T06:26:23;1.90;;;1.42;;
35795;SDS011;21916;52.428;13.302;2023-06-14T06:28:49;1.98;;;1.50;;
35795;SDS011;21916;52.428;13.302;2023-06-14T06:31:15;3.55;;;1.58;;
35795;SDS011;21916;52.428;13.302;2023-06-14T06:33:41;2.05;;;1.50;;
35795;SDS011;21916;52.428;13.302;2023-06-14T06:36:06;1.98;;;1.52;;
35795;SDS011;21916;52.428;13.302;2023-06-14T06:38:32;2.13;;;1.52;;
35795;SDS011;21916;52.428;13.302;2023-06-14T06:40:58;3.20;;;1.50;;
35795;SDS011;21916;52.428;13.302;2023-06-14T06:43:24;3.63;;;2.15;;
35795;SDS011;21916;52.428;13.302;2023-06-14T06:45:50;2.75;;;1.55;;
35795;SDS011;21916;52.428;13.302;2023-06-14T06:48:16;1.88;;;1.55;;
35795;SDS011;21916;52.428;13.302;2023-06-14T06:50:41;3.92;;;2.00;;
35795;SDS011;21916;52.428;13.302;2023-06-14T06:53:07;1.83;;;1.33;;
35795;SDS011;21916;52.428;13.302;2023-06-14T06:55:33;3.03;;;1.60;;
35795;SDS011;21916;52.428;13.302;2023-06-14T06:57:59;3.17;;;1.52;;
35795;SDS011;21916;52.428;13.302;2023-06-14T07:00:25;2.05;;;1.23;;
35795;SDS011;21916;52.428;13.302;2023-06-14T07:02:51;2.65;;;1.65;;
35795;SDS011;21916;52.428;13.302;2023-06-14T07:05:20;4.85;;;1.58;;
35795;SDS011;21916;52.428;13.302;2023-06-14T07:07:46;4.50;;;2.03;;
35795;SDS011;21916;52.428;13.302;2023-06-14T07:10:12;2.22;;;1.38;;
35795;SDS011;21916;52.428;13.302;2023-06-14T07:12:38;2.55;;;1.65;;
35795;SDS011;21916;52.428;13.302;2023-06-14T07:15:07;2.38;;;1.40;;
35795;SDS011;21916;52.428;13.302;2023-06-14T07:17:33;2.35;;;1.20;;
35795;SDS011;21916;52.428;13.302;2023-06-14T07:20:00;2.45;;;1.77;;
35795;SDS011;21916;52.428;13.302;2023-06-14T07:22:30;2.90;;;1.42;;
35795;SDS011;21916;52.428;13.302;2023-06-14T07:24:56;3.90;;;2.13;;
35795;SDS011;21916;52.428;13.302;2023-06-14T07:27:22;2.60;;;2.40;;
35795;SDS011;21916;52.428;13.302;2023-06-14T07:29:48;1.70;;;1.52;;
35795;SDS011;21916;52.428;13.302;2023-06-14T07:32:14;2.58;;;1.48;;
35795;SDS011;21916;52.428;13.302;2023-06-14T07:34:40;1.92;;;1.42;;
35795;SDS011;21916;52.428;13.302;2023-06-14T07:37:06;2.38;;;1.42;;
35795;SDS011;21916;52.428;13.302;2023-06-14T07:39:31;4.38;;;2.00;;
35795;SDS011;21916;52.428;13.302;2023-06-14T07:41:57;4.03;;;1.60;;
35795;SDS011;21916;52.428;13.302;2023-06-14T07:44:23;1.90;;;1.42;;
35795;SDS011;21916;52.428;13.302;2023-06-14T07:46:49;3.33;;;1.70;;
35795;SDS011;21916;52.428;13.302;2023-06-14T07:49:15;2.42;;;1.25;;
35795;SDS011;21916;52.428;13.302;2023-06-14T07:51:41;1.70;;;1.20;;
35795;SDS011;21916;52.428;13.302;2023-06-14T07:54:09;2.70;;;1.65;;
35795;SDS011;21916;52.428;13.302;2023-06-14T07:56:35;1.42;;;1.30;;
35795;SDS011;21916;52.428;13.302;2023-06-14T07:59:01;2.20;;;1.33;;
35795;SDS011;21916;52.428;13.302;2023-06-14T08:01:27;3.65;;;1.65;;
35795;SDS011;21916;52.428;13.302;2023-06-14T08:03:53;3.13;;;1.40;;
35795;SDS011;21916;52.428;13.302;2023-06-14T08:06:19;2.95;;;1.42;;
35795;SDS011;21916;52.428;13.302;2023-06-14T08:08:45;1.95;;;1.15;;
35795;SDS011;21916;52.428;13.302;2023-06-14T08:11:11;2.30;;;1.58;;
35795;SDS011;21916;52.428;13.302;2023-06-14T08:13:37;2.67;;;1.45;;
35795;SDS011;21916;52.428;13.302;2023-06-14T08:16:03;3.03;;;1.50;;
35795;SDS011;21916;52.428;13.302;2023-06-14T08:18:30;2.03;;;1.10;;
35795;SDS011;21916;52.428;13.302;2023-06-14T08:20:56;2.40;;;1.13;;
35795;SDS011;21916;52.428;13.302;2023-06-14T08:23:23;2.13;;;1.65;;
35795;SDS011;21916;52.428;13.302;2023-06-14T08:25:49;1.55;;;0.90;;
35795;SDS011;21916;52.428;13.302;2023-06-14T08:28:15;1.63;;;1.30;;
35795;SDS011;21916;52.428;13.302;2023-06-14T08:30:41;2.05;;;1.33;;
35795;SDS011;21916;52.428;13.302;2023-06-14T08:33:08;1.88;;;1.30;;
35795;SDS011;21916;52.428;13.302;2023-06-14T08:35:34;3.25;;;1.17;;
35795;SDS011;21916;52.428;13.302;2023-06-14T08:38:02;1.85;;;1.05;;
35795;SDS011;21916;52.428;13.302;2023-06-14T08:40:29;1.65;;;1.00;;
35795;SDS011;21916;52.428;13.302;2023-06-14T08:42:56;1.52;;;1.42;;
35795;SDS011;21916;52.428;13.302;2023-06-14T08:45:22;1.70;;;1.27;;
35795;SDS011;21916;52.428;13.302;2023-06-14T08:47:50;1.73;;;1.20;;
35795;SDS011;21916;52.428;13.302;2023-06-14T08:50:25;3.17;;;1.25;;
35795;SDS011;21916;52.428;13.302;2023-06-14T08:52:56;1.58;;;1.30;;
35795;SDS011;21916;52.428;13.302;2023-06-14T08:55:27;1.80;;;1.10;;
35795;SDS011;21916;52.428;13.302;2023-06-14T08:57:55;1.45;;;1.33;;
35795;SDS011;21916;52.428;13.302;2023-06-14T09:00:25;1.35;;;0.75;;
35795;SDS011;21916;52.428;13.302;2023-06-14T09:02:52;2.20;;;1.23;;
35795;SDS011;21916;52.428;13.302;2023-06-14T09:05:25;1.23;;;0.97;;
35795;SDS011;21916;52.428;13.302;2023-06-14T09:07:51;3.38;;;1.50;;
35795;SDS011;21916;52.428;13.302;2023-06-14T09:10:18;1.02;;;0.95;;
35795;SDS011;21916;52.428;13.302;2023-06-14T09:12:45;1.42;;;1.08;;
35795;SDS011;21916;52.428;13.302;2023-06-14T09:15:12;1.90;;;0.90;;
35795;SDS011;21916;52.428;13.302;2023-06-14T09:17:39;2.35;;;1.38;;
35795;SDS011;21916;52.428;13.302;2023-06-14T09:20:06;1.55;;;1.10;;
35795;SDS011;21916;52.428;13.302;2023-06-14T09:22:42;1.17;;;0.57;;
35795;SDS011;21916;52.428;13.302;2023-06-14T09:25:08;1.10;;;1.00;;
35795;SDS011;21916;52.428;13.302;2023-06-14T09:27:34;1.80;;;1.45;;
35795;SDS011;21916;52.428;13.302;2023-06-14T09:30:05;1.38;;;1.00;;
35795;SDS011;21916;52.428;13.302;2023-06-14T09:32:37;1.00;;;0.90;;
35795;SDS011;21916;52.428;13.302;2023-06-14T09:35:08;0.88;;;0.75;;
35795;SDS011;21916;52.428;13.302;2023-06-14T09:37:34;1.02;;;0.88;;
35795;SDS011;21916;52.428;13.302;2023-06-14T09:40:03;1.00;;;0.90;;
35795;SDS011;21916;52.428;13.302;2023-06-14T09:42:29;1.30;;;1.20;;
35795;SDS011;21916;52.428;13.302;2023-06-14T09:44:56;1.23;;;1.08;;
35795;SDS011;21916;52.428;13.302;2023-06-14T09:47:23;0.93;;;0.88;;
35795;SDS011;21916;52.428;13.302;2023-06-14T09:49:50;1.52;;;1.23;;
35795;SDS011;21916;52.428;13.302;2023-06-14T09:52:17;1.50;;;1.38;;
35795;SDS011;21916;52.428;13.302;2023-06-14T09:54:45;1.65;;;1.20;;
35795;SDS011;21916;52.428;13.302;2023-06-14T09:57:16;1.73;;;1.25;;
35795;SDS011;21916;52.428;13.302;2023-06-14T09:59:47;1.23;;;1.13;;
35795;SDS011;21916;52.428;13.302;2023-06-14T10:02:26;1.23;;;0.80;;
35795;SDS011;21916;52.428;13.302;2023-06-14T10:04:58;1.73;;;0.90;;
35795;SDS011;21916;52.428;13.302;2023-06-14T10:07:30;3.08;;;0.98;;
35795;SDS011;21916;52.428;13.302;2023-06-14T10:10:04;0.70;;;0.57;;
35795;SDS011;21916;52.428;13.302;2023-06-14T10:12:31;1.00;;;0.95;;
35795;SDS011;21916;52.428;13.302;2023-06-14T10:14:57;0.98;;;0.82;;
35795;SDS011;21916;52.428;13.302;2023-06-14T10:17:26;2.25;;;1.20;;
35795;SDS011;21916;52.428;13.302;2023-06-14T10:19:58;1.02;;;0.90;;
35795;SDS011;21916;52.428;13.302;2023-06-14T10:23:00;2.22;;;1.50;;
35795;SDS011;21916;52.428;13.302;2023-06-14T10:25:33;1.20;;;0.82;;
35795;SDS011;21916;52.428;13.302;2023-06-14T10:28:02;1.00;;;0.85;;
35795;SDS011;21916;52.428;13.302;2023-06-14T10:30:29;1.05;;;0.90;;
35795;SDS011;21916;52.428;13.302;2023-06-14T10:33:13;1.52;;;0.93;;
35795;SDS011;21916;52.428;13.302;2023-06-14T10:35:41;0.85;;;0.80;;
35795;SDS011;21916;52.428;13.302;2023-06-14T10:38:08;1.13;;;0.93;;
35795;SDS011;21916;52.428;13.302;2023-06-14T10:40:35;1.02;;;0.90;;
35795;SDS011;21916;52.428;13.302;2023-06-14T10:43:06;1.80;;;0.98;;
35795;SDS011;21916;52.428;13.302;2023-06-14T10:48:40;3.28;;;1.25;;
35795;SDS011;21916;52.428;13.302;2023-06-14T10:51:19;1.60;;;1.15;;
35795;SDS011;21916;52.428;13.302;2023-06-14T10:53:46;1.15;;;1.08;;
35795;SDS011;21916;52.428;13.302;2023-06-14T10:56:50;2.08;;;1.05;;
35795;SDS011;21916;52.428;13.302;2023-06-14T10:59:16;1.05;;;0.88;;
35795;SDS011;21916;52.428;13.302;2023-06-14T11:09:51;1.38;;;1.00;;
35795;SDS011;21916;52.428;13.302;2023-06-14T11:12:45;1.58;;;0.95;;
35795;SDS011;21916;52.428;13.302;2023-06-14T11:15:13;1.20;;;1.02;;
35795;SDS011;21916;52.428;13.302;2023-06-14T11:17:53;1.92;;;0.95;;
35795;SDS011;21916;52.428;13.302;2023-06-14T11:20:24;2.00;;;1.00;;
35795;SDS011;21916;52.428;13.302;2023-06-14T11:22:51;0.88;;;0.75;;
35795;SDS011;21916;52.428;13.302;2023-06-14T11:25:17;2.50;;;1.20;;
35795;SDS011;21916;52.428;13.302;2023-06-14T11:27:44;1.73;;;1.02;;
35795;SDS011;21916;52.428;13.302;2023-06-14T11:30:10;1.75;;;0.85;;
35795;SDS011;21916;52.428;13.302;2023-06-14T11:32:39;1.10;;;0.88;;
35795;SDS011;21916;52.428;13.302;2023-06-14T11:35:06;2.25;;;1.17;;
35795;SDS011;21916;52.428;13.302;2023-06-14T11:37:33;1.63;;;1.20;;
35795;SDS011;21916;52.428;13.302;2023-06-14T11:40:02;1.30;;;0.93;;
35795;SDS011;21916;52.428;13.302;2023-06-14T11:42:37;1.23;;;0.98;;
35795;SDS011;21916;52.428;13.302;2023-06-14T11:45:04;2.25;;;1.00;;
35795;SDS011;21916;52.428;13.302;2023-06-14T11:47:36;1.65;;;1.17;;
35795;SDS011;21916;52.428;13.302;2023-06-14T11:50:04;0.80;;;0.80;;
35795;SDS011;21916;52.428;13.302;2023-06-14T11:52:32;5.18;;;0.98;;
35795;SDS011;21916;52.428;13.302;2023-06-14T11:54:58;1.38;;;0.80;;
35795;SDS011;21916;52.428;13.302;2023-06-14T11:57:24;1.20;;;1.10;;
35795;SDS011;21916;52.428;13.302;2023-06-14T11:59:51;0.93;;;0.85;;
35795;SDS011;21916;52.428;13.302;2023-06-14T12:02:18;1.15;;;0.90;;
35795;SDS011;21916;52.428;13.302;2023-06-14T12:04:47;1.25;;;0.80;;
35795;SDS011;21916;52.428;13.302;2023-06-14T12:07:14;1.73;;;0.77;;
35795;SDS011;21916;52.428;13.302;2023-06-14T12:09:43;0.90;;;0.85;;
35795;SDS011;21916;52.428;13.302;2023-06-14T12:12:34;1.38;;;0.90;;
35795;SDS011;21916;52.428;13.302;2023-06-14T12:15:02;1.27;;;1.17;;
35795;SDS011;21916;52.428;13.302;2023-06-14T12:17:36;1.38;;;0.82;;
35795;SDS011;21916;52.428;13.302;2023-06-14T12:20:10;1.83;;;0.70;;
35795;SDS011;21916;52.428;13.302;2023-06-14T12:22:53;1.35;;;1.02;;
35795;SDS011;21916;52.428;13.302;2023-06-14T12:25:33;0.68;;;0.63;;
35795;SDS011;21916;52.428;13.302;2023-06-14T12:28:05;1.20;;;0.85;;
35795;SDS011;21916;52.428;13.302;2023-06-14T12:30:33;1.60;;;0.95;;
35795;SDS011;21916;52.428;13.302;2023-06-14T12:33:01;1.50;;;1.10;;
35795;SDS011;21916;52.428;13.302;2023-06-14T12:35:28;1.38;;;0.85;;
35795;SDS011;21916;52.428;13.302;2023-06-14T12:37:53;1.77;;;1.40;;
35795;SDS011;21916;52.428;13.302;2023-06-14T12:40:19;1.10;;;1.00;;
35795;SDS011;21916;52.428;13.302;2023-06-14T12:42:46;1.45;;;0.90;;
35795;SDS011;21916;52.428;13.302;2023-06-14T12:45:15;1.58;;;1.10;;
35795;SDS011;21916;52.428;13.302;2023-06-14T12:47:41;1.05;;;0.95;;
35795;SDS011;21916;52.428;13.302;2023-06-14T12:50:07;1.98;;;1.00;;
35795;SDS011;21916;52.428;13.302;2023-06-14T12:52:33;1.60;;;0.82;;
35795;SDS011;21916;52.428;13.302;2023-06-14T12:55:04;1.40;;;0.90;;
35795;SDS011;21916;52.428;13.302;2023-06-14T12:57:30;0.80;;;0.80;;
35795;SDS011;21916;52.428;13.302;2023-06-14T12:59:57;0.73;;;0.73;;
35795;SDS011;21916;52.428;13.302;2023-06-14T13:02:23;1.08;;;0.93;;
35795;SDS011;21916;52.428;13.302;2023-06-14T13:04:49;0.85;;;0.85;;
35795;SDS011;21916;52.428;13.302;2023-06-14T13:07:16;1.70;;;1.25;;
35795;SDS011;21916;52.428;13.302;2023-06-14T13:09:42;0.80;;;0.80;;
35795;SDS011;21916;52.428;13.302;2023-06-14T13:12:09;1.00;;;0.77;;
35795;SDS011;21916;52.428;13.302;2023-06-14T13:14:39;1.13;;;0.82;;
35795;SDS011;21916;52.428;13.302;2023-06-14T13:17:09;1.02;;;0.90;;
35795;SDS011;21916;52.428;13.302;2023-06-14T13:19:35;1.27;;;0.98;;
35795;SDS011;21916;52.428;13.302;2023-06-14T13:22:01;0.80;;;0.80;;
35795;SDS011;21916;52.428;13.302;2023-06-14T13:24:28;1.30;;;0.85;;
35795;SDS011;21916;52.428;13.302;2023-06-14T13:26:55;1.08;;;0.70;;
35795;SDS011;21916;52.428;13.302;2023-06-14T13:29:22;1.80;;;1.48;;
35795;SDS011;21916;52.428;13.302;2023-06-14T13:31:49;1.10;;;1.00;;
35795;SDS011;21916;52.428;13.302;2023-06-14T13:34:15;1.17;;;1.08;;
35795;SDS011;21916;52.428;13.302;2023-06-14T13:36:40;1.23;;;0.90;;
35795;SDS011;21916;52.428;13.302;2023-06-14T13:39:06;2.03;;;1.15;;
35795;SDS011;21916;52.428;13.302;2023-06-14T13:41:32;0.80;;;0.80;;
35795;SDS011;21916;52.428;13.302;2023-06-14T13:44:00;2.80;;;0.90;;
35795;SDS011;21916;52.428;13.302;2023-06-14T13:46:54;2.33;;;1.35;;
35795;SDS011;21916;52.428;13.302;2023-06-14T13:49:45;0.40;;;0.40;;
35795;SDS011;21916;52.428;13.302;2023-06-14T13:52:36;1.05;;;0.80;;
35795;SDS011;21916;52.428;13.302;2023-06-14T13:55:27;1.08;;;0.98;;
35795;SDS011;21916;52.428;13.302;2023-06-14T13:58:18;1.45;;;0.85;;
35795;SDS011;21916;52.428;13.302;2023-06-14T14:01:10;1.65;;;0.90;;
35795;SDS011;21916;52.428;13.302;2023-06-14T14:04:01;0.90;;;0.90;;
35795;SDS011;21916;52.428;13.302;2023-06-14T14:06:53;0.98;;;0.82;;
35795;SDS011;21916;52.428;13.302;2023-06-14T14:09:44;1.77;;;1.10;;
35795;SDS011;21916;52.428;13.302;2023-06-14T14:12:35;1.10;;;1.00;;
35795;SDS011;21916;52.428;13.302;2023-06-14T14:15:29;1.20;;;1.10;;
35795;SDS011;21916;52.428;13.302;2023-06-14T14:18:20;1.02;;;0.90;;
35795;SDS011;21916;52.428;13.302;2023-06-14T14:21:11;1.13;;;0.80;;
35795;SDS011;21916;52.428;13.302;2023-06-14T14:24:27;1.45;;;0.98;;
35795;SDS011;21916;52.428;13.302;2023-06-14T14:27:43;1.23;;;0.77;;
35795;SDS011;21916;52.428;13.302;2023-06-14T14:30:59;0.68;;;0.65;;
35795;SDS011;21916;52.428;13.302;2023-06-14T14:34:15;1.05;;;0.70;;
35795;SDS011;21916;52.428;13.302;2023-06-14T14:37:31;0.95;;;0.63;;
35795;SDS011;21916;52.428;13.302;2023-06-14T14:40:47;1.08;;;0.90;;
35795;SDS011;21916;52.428;13.302;2023-06-14T14:43:14;1.75;;;0.77;;
35795;SDS011;21916;52.428;13.302;2023-06-14T14:45:40;1.13;;;1.02;;
35795;SDS011;21916;52.428;13.302;2023-06-14T14:48:05;6.57;;;1.48;;
35795;SDS011;21916;52.428;13.302;2023-06-14T14:50:32;2.10;;;0.98;;
35795;SDS011;21916;52.428;13.302;2023-06-14T14:52:58;1.23;;;0.90;;
35795;SDS011;21916;52.428;13.302;2023-06-14T14:55:24;1.90;;;1.33;;
35795;SDS011;21916;52.428;13.302;2023-06-14T14:57:50;0.90;;;0.90;;
35795;SDS011;21916;52.428;13.302;2023-06-14T15:00:16;2.17;;;1.17;;
35795;SDS011;21916;52.428;13.302;2023-06-14T15:02:43;1.35;;;0.90;;
35795;SDS011;21916;52.428;13.302;2023-06-14T15:05:09;0.85;;;0.85;;